createdAt,value
2022-08-26T00:02:16.160Z,68.44
2022-08-26T00:05:25.609Z,68.76
2022-08-26T00:08:32.809Z,68.91
2022-08-26T00:11:41.537Z,69.01
2022-08-26T00:14:48.301Z,69.14
2022-08-26T00:17:55.741Z,69.39
2022-08-26T00:21:06.098Z,69.66
2022-08-26T00:24:13.458Z,69.70
2022-08-26T00:27:23.014Z,69.74
2022-08-26T00:30:31.950Z,70.06
2022-08-26T00:33:38.872Z,70.23
2022-08-26T00:36:44.795Z,70.34
2022-08-26T00:39:53.084Z,70.38
2022-08-26T00:43:03.332Z,70.71
2022-08-26T00:46:19.789Z,70.75
2022-08-26T00:49:32.899Z,71.13
2022-08-26T00:52:40.726Z,71.13
2022-08-26T00:55:55.859Z,71.47
2022-08-26T00:59:10.494Z,71.54
2022-08-26T01:02:20.186Z,71.41
2022-08-26T01:05:28.726Z,71.18
2022-08-26T01:08:37.307Z,70.96
2022-08-26T01:11:46.324Z,70.82
2022-08-26T01:14:55.370Z,70.80
2022-08-26T01:18:03.114Z,70.65
2022-08-26T01:21:19.210Z,70.55
2022-08-26T01:24:32.349Z,70.23
2022-08-26T01:27:38.509Z,70.35
2022-08-26T01:30:47.111Z,70.22
2022-08-26T01:34:00.603Z,70.30
2022-08-26T01:37:11.697Z,70.33
2022-08-26T01:40:28.469Z,70.34
2022-08-26T01:43:36.521Z,70.36
2022-08-26T01:46:42.818Z,70.24
2022-08-26T01:49:54.193Z,70.32
2022-08-26T01:53:03.130Z,70.22
2022-08-26T01:56:15.124Z,70.32
2022-08-26T01:59:23.748Z,70.42
2022-08-26T02:02:31.041Z,70.24
2022-08-26T02:05:38.198Z,70.23
2022-08-26T02:08:48.702Z,70.13
2022-08-26T02:12:03.225Z,70.08
2022-08-26T02:15:15.730Z,70.13
2022-08-26T02:18:23.755Z,70.16
2022-08-26T02:21:31.817Z,70.20
2022-08-26T02:24:50.814Z,70.31
2022-08-26T02:28:00.462Z,70.34
2022-08-26T02:31:07.918Z,70.39
2022-08-26T02:34:17.510Z,70.38
2022-08-26T02:37:23.519Z,70.36
2022-08-26T02:40:33.954Z,70.53
2022-08-26T02:43:44.647Z,70.43
2022-08-26T02:46:51.656Z,70.35
2022-08-26T02:50:00.004Z,70.27
2022-08-26T02:53:09.024Z,70.31
2022-08-26T02:56:15.990Z,70.24
2022-08-26T02:59:26.318Z,70.25
2022-08-26T03:02:34.575Z,70.43
2022-08-26T03:05:41.596Z,70.38
2022-08-26T03:08:49.035Z,70.64
2022-08-26T03:11:56.163Z,70.48
2022-08-26T03:15:16.473Z,70.51
2022-08-26T03:18:25.498Z,70.47
2022-08-26T03:21:31.952Z,70.67
2022-08-26T03:24:40.179Z,70.43
2022-08-26T03:27:47.188Z,70.41
2022-08-26T03:30:54.634Z,70.18
2022-08-26T03:34:01.093Z,70.04
2022-08-26T03:37:08.727Z,70.03
2022-08-26T03:40:16.061Z,70.03
2022-08-26T03:43:27.411Z,69.88
2022-08-26T03:46:36.703Z,69.83
2022-08-26T03:49:43.583Z,69.96
2022-08-26T03:52:51.813Z,69.98
2022-08-26T03:55:59.090Z,70.07
2022-08-26T03:59:07.628Z,70.08
2022-08-26T04:02:17.428Z,70.09
2022-08-26T04:05:25.835Z,69.97
2022-08-26T04:08:35.350Z,70.42
2022-08-26T04:11:42.260Z,70.51
2022-08-26T04:14:49.593Z,70.56
2022-08-26T04:17:58.723Z,70.54
2022-08-26T04:21:08.011Z,70.70
2022-08-26T04:24:17.546Z,70.74
2022-08-26T04:27:24.477Z,70.62
2022-08-26T04:30:31.254Z,70.94
2022-08-26T04:33:42.076Z,71.09
2022-08-26T04:36:51.640Z,71.39
2022-08-26T04:39:58.456Z,71.06
2022-08-26T04:43:06.333Z,71.34
2022-08-26T04:46:14.522Z,71.71
2022-08-26T04:49:23.975Z,71.64
2022-08-26T04:52:32.942Z,72.08
2022-08-26T04:55:42.882Z,71.99
2022-08-26T04:58:52.913Z,71.92
2022-08-26T05:01:59.982Z,71.59
2022-08-26T05:05:12.434Z,71.59
2022-08-26T05:08:18.916Z,71.49
2022-08-26T05:11:25.801Z,71.22
2022-08-26T05:14:32.150Z,71.34
2022-08-26T05:17:40.799Z,70.66
2022-08-26T05:20:54.941Z,70.50
2022-08-26T05:24:03.100Z,70.21
2022-08-26T05:27:11.539Z,69.66
2022-08-26T05:30:19.207Z,69.12
2022-08-26T05:33:27.217Z,68.66
2022-08-26T05:36:40.437Z,68.18
2022-08-26T05:39:48.766Z,67.57
2022-08-26T05:42:58.863Z,67.19
2022-08-26T05:46:10.119Z,66.87
2022-08-26T05:49:18.905Z,66.22
2022-08-26T05:52:28.238Z,65.72
2022-08-26T05:55:35.239Z,65.38
2022-08-26T05:58:42.810Z,65.23
2022-08-26T06:01:53.154Z,64.96
2022-08-26T06:04:59.930Z,64.67
2022-08-26T06:08:19.379Z,64.25
2022-08-26T06:11:27.531Z,63.95
2022-08-26T06:14:34.576Z,63.40
2022-08-26T06:17:40.975Z,63.09
2022-08-26T06:20:57.614Z,62.67
2022-08-26T06:24:27.237Z,62.22
2022-08-26T06:27:52.071Z,61.81
2022-08-26T06:30:58.206Z,61.44
2022-08-26T06:34:10.768Z,60.99
2022-08-26T06:37:17.457Z,61.04
2022-08-26T06:40:28.002Z,60.91
2022-08-26T06:43:34.044Z,60.72
2022-08-26T06:46:41.142Z,60.28
2022-08-26T06:49:47.451Z,60.10
2022-08-26T06:52:55.682Z,59.92
2022-08-26T06:56:07.944Z,59.52
2022-08-26T06:59:16.302Z,59.43
2022-08-26T07:02:23.151Z,59.49
2022-08-26T07:05:30.264Z,58.61
2022-08-26T07:08:36.577Z,58.84
2022-08-26T07:11:46.183Z,58.61
2022-08-26T07:14:52.859Z,58.19
2022-08-26T07:18:00.674Z,58.30
2022-08-26T07:21:09.874Z,57.46
2022-08-26T07:24:16.663Z,56.95
2022-08-26T07:27:25.553Z,57.34
2022-08-26T07:30:32.689Z,57.54
2022-08-26T07:33:39.499Z,56.43
2022-08-26T07:36:47.981Z,56.42
2022-08-26T07:39:54.826Z,57.08
2022-08-26T07:43:06.195Z,56.43
2022-08-26T07:46:16.370Z,56.23
2022-08-26T07:49:24.530Z,56.62
2022-08-26T07:52:33.210Z,56.46
2022-08-26T07:55:40.572Z,55.74
2022-08-26T07:58:51.765Z,56.07
2022-08-26T08:02:03.349Z,56.41
2022-08-26T08:05:10.186Z,56.25
2022-08-26T08:08:27.164Z,55.10
2022-08-26T08:11:34.225Z,56.12
2022-08-26T08:14:46.944Z,55.62
2022-08-26T08:17:55.627Z,55.44
2022-08-26T08:21:23.862Z,55.39
2022-08-26T08:24:30.174Z,55.41
2022-08-26T08:27:37.724Z,55.57
2022-08-26T08:30:46.730Z,55.71
2022-08-26T08:33:54.074Z,54.91
2022-08-26T08:37:00.151Z,54.63
2022-08-26T08:40:10.149Z,54.34
2022-08-26T08:43:20.540Z,54.71
2022-08-26T08:46:33.015Z,54.29
2022-08-26T08:49:39.161Z,54.15
2022-08-26T08:52:49.321Z,54.24
2022-08-26T08:56:04.857Z,55.28
2022-08-26T08:59:18.143Z,54.45
2022-08-26T09:02:36.889Z,52.96
2022-08-26T09:05:48.829Z,52.68
2022-08-26T09:08:55.620Z,51.71
2022-08-26T09:12:05.859Z,51.91
2022-08-26T09:15:20.656Z,52.18
2022-08-26T09:18:53.440Z,51.58
2022-08-26T09:21:59.863Z,51.68
2022-08-26T09:25:13.011Z,50.76
2022-08-26T09:28:21.599Z,50.49
2022-08-26T09:31:31.058Z,50.08
2022-08-26T09:34:54.984Z,49.60
2022-08-26T09:38:03.106Z,50.08
2022-08-26T09:41:23.101Z,49.83
2022-08-26T09:44:30.801Z,49.92
2022-08-26T09:47:41.623Z,49.64
2022-08-26T09:50:58.842Z,49.81
2022-08-26T09:54:08.127Z,49.07
2022-08-26T09:57:21.517Z,49.53
2022-08-26T10:00:38.381Z,48.95
2022-08-26T10:03:47.116Z,48.14
2022-08-26T10:07:04.331Z,47.21
2022-08-26T10:10:15.156Z,47.71
2022-08-26T10:13:29.689Z,47.06
2022-08-26T10:16:48.765Z,46.37
2022-08-26T10:20:03.409Z,47.09
2022-08-26T10:23:19.931Z,45.88
2022-08-26T10:26:36.332Z,45.28
2022-08-26T10:29:47.204Z,45.98
2022-08-26T10:32:56.420Z,46.04
2022-08-26T10:36:29.436Z,45.57
2022-08-26T10:39:42.742Z,44.71
2022-08-26T10:42:55.772Z,47.36
2022-08-26T10:46:07.074Z,45.29
2022-08-26T10:49:18.095Z,44.75
2022-08-26T10:52:31.715Z,44.64
2022-08-26T10:55:49.121Z,42.48
2022-08-26T10:59:06.534Z,43.21
2022-08-26T11:02:25.268Z,42.41
2022-08-26T11:05:31.221Z,42.48
2022-08-26T11:08:38.245Z,42.65
2022-08-26T11:11:53.063Z,41.20
2022-08-26T11:15:00.857Z,42.10
2022-08-26T11:18:10.857Z,41.84
2022-08-26T11:21:52.553Z,41.08
2022-08-26T11:25:11.630Z,41.57
2022-08-26T11:28:36.532Z,42.13
2022-08-26T11:31:57.806Z,40.86
2022-08-26T11:35:06.446Z,41.39
2022-08-26T11:38:19.041Z,41.66
2022-08-26T11:41:30.029Z,41.23
2022-08-26T11:44:49.038Z,41.47
2022-08-26T11:47:57.684Z,41.03
2022-08-26T11:51:06.242Z,40.54
2022-08-26T11:54:18.329Z,40.46
2022-08-26T11:57:47.398Z,40.93
2022-08-26T12:01:01.253Z,41.19
2022-08-26T12:04:13.133Z,41.20
2022-08-26T12:07:24.185Z,41.12
2022-08-26T12:10:33.923Z,39.99
2022-08-26T12:13:42.867Z,40.77
2022-08-26T12:16:55.262Z,39.28
2022-08-26T12:20:03.111Z,39.45
2022-08-26T12:23:09.494Z,39.46
2022-08-26T12:26:24.545Z,38.33
2022-08-26T12:29:31.435Z,38.31
2022-08-26T12:32:57.616Z,37.70
2022-08-26T12:36:06.151Z,36.55
2022-08-26T12:39:16.968Z,37.16
2022-08-26T12:42:43.400Z,37.43
2022-08-26T12:46:00.935Z,35.51
2022-08-26T12:49:11.187Z,36.41
2022-08-26T12:52:32.979Z,35.41
2022-08-26T12:55:43.873Z,36.59
2022-08-26T12:59:06.369Z,35.58
2022-08-26T13:02:12.499Z,36.03
2022-08-26T13:05:29.218Z,35.18
2022-08-26T13:08:35.133Z,36.02
2022-08-26T13:12:02.238Z,35.83
2022-08-26T13:15:10.423Z,36.33
2022-08-26T13:18:17.214Z,35.84
2022-08-26T13:21:27.876Z,36.30
2022-08-26T13:24:38.395Z,36.35
2022-08-26T13:27:44.685Z,36.41
2022-08-26T13:30:51.513Z,36.27
2022-08-26T13:33:57.938Z,35.87
2022-08-26T13:37:08.478Z,35.20
2022-08-26T13:40:15.210Z,36.89
2022-08-26T13:43:22.293Z,37.02
2022-08-26T13:46:28.574Z,37.16
2022-08-26T13:49:35.984Z,36.98
2022-08-26T13:52:44.998Z,36.42
2022-08-26T13:55:52.529Z,37.35
2022-08-26T13:58:59.673Z,37.33
2022-08-26T14:02:06.850Z,37.10
2022-08-26T14:05:15.504Z,37.08
2022-08-26T14:08:26.277Z,36.85
2022-08-26T14:11:39.057Z,37.48
2022-08-26T14:14:59.229Z,37.04
2022-08-26T14:18:08.821Z,37.79
2022-08-26T14:21:16.678Z,37.63
2022-08-26T14:24:25.424Z,37.82
2022-08-26T14:27:32.177Z,37.38
2022-08-26T14:30:38.951Z,37.49
2022-08-26T14:33:46.138Z,37.52
2022-08-26T14:36:52.052Z,36.95
2022-08-26T14:40:03.517Z,37.46
2022-08-26T14:43:10.010Z,36.77
2022-08-26T14:46:18.539Z,37.31
2022-08-26T14:49:27.473Z,37.21
2022-08-26T14:52:54.238Z,37.17
2022-08-26T14:56:03.382Z,36.42
2022-08-26T14:59:13.821Z,36.14
2022-08-26T15:02:32.595Z,36.03
2022-08-26T15:05:48.109Z,35.79
2022-08-26T15:08:54.391Z,36.20
2022-08-26T15:12:04.269Z,36.25
2022-08-26T15:15:13.468Z,36.33
2022-08-26T15:18:20.551Z,36.30
2022-08-26T15:21:27.263Z,36.29
2022-08-26T15:24:34.051Z,35.72
2022-08-26T15:27:43.335Z,35.53
2022-08-26T15:30:50.435Z,36.06
2022-08-26T15:33:59.620Z,35.34
2022-08-26T15:37:09.908Z,34.79
2022-08-26T15:40:15.902Z,35.17
2022-08-26T15:43:29.158Z,34.69
2022-08-26T15:46:35.706Z,34.99
2022-08-26T15:49:44.877Z,35.23
2022-08-26T15:52:51.119Z,34.47
2022-08-26T15:55:59.326Z,34.62
2022-08-26T15:59:11.916Z,33.51
2022-08-26T16:02:20.182Z,33.55
2022-08-26T16:05:26.491Z,32.96
2022-08-26T16:08:36.431Z,32.58
2022-08-26T16:11:42.684Z,32.08
2022-08-26T16:14:54.177Z,31.81
2022-08-26T16:18:03.296Z,31.35
2022-08-26T16:21:13.507Z,31.71
2022-08-26T16:24:24.894Z,31.40
2022-08-26T16:27:34.461Z,31.35
2022-08-26T16:30:45.089Z,31.81
2022-08-26T16:33:52.672Z,31.35
2022-08-26T16:36:58.667Z,31.68
2022-08-26T16:40:08.846Z,32.37
2022-08-26T16:43:15.377Z,33.01
2022-08-26T16:46:26.457Z,33.38
2022-08-26T16:49:32.459Z,33.75
2022-08-26T16:52:39.916Z,34.09
2022-08-26T16:55:48.294Z,34.77
2022-08-26T16:58:55.099Z,34.79
2022-08-26T17:02:05.211Z,35.60
2022-08-26T17:05:13.803Z,35.62
2022-08-26T17:08:24.294Z,36.10
2022-08-26T17:11:36.030Z,36.27
2022-08-26T17:14:42.588Z,36.96
2022-08-26T17:17:56.340Z,37.02
2022-08-26T17:21:06.462Z,38.05
2022-08-26T17:24:13.243Z,37.57
2022-08-26T17:27:19.165Z,38.37
2022-08-26T17:30:27.622Z,38.73
2022-08-26T17:33:39.475Z,38.95
2022-08-26T17:36:46.577Z,39.53
2022-08-26T17:39:53.285Z,40.22
2022-08-26T17:43:01.352Z,40.03
2022-08-26T17:46:10.072Z,40.81
2022-08-26T17:49:19.989Z,41.05
2022-08-26T17:52:25.993Z,41.06
2022-08-26T17:55:33.149Z,41.34
2022-08-26T17:58:39.385Z,41.67
2022-08-26T18:01:46.233Z,41.59
2022-08-26T18:04:56.086Z,42.09
2022-08-26T18:08:03.099Z,42.06
2022-08-26T18:11:12.219Z,42.33
2022-08-26T18:14:19.428Z,42.37
2022-08-26T18:17:25.782Z,42.81
2022-08-26T18:20:35.444Z,42.81
2022-08-26T18:23:41.659Z,43.07
2022-08-26T18:26:51.198Z,43.51
2022-08-26T18:29:58.431Z,43.41
2022-08-26T18:33:07.106Z,43.52
2022-08-26T18:36:22.585Z,44.28
2022-08-26T18:39:29.350Z,44.20
2022-08-26T18:42:35.269Z,44.71
2022-08-26T18:45:42.319Z,44.91
2022-08-26T18:48:49.069Z,44.57
2022-08-26T18:52:00.794Z,45.23
2022-08-26T18:55:08.159Z,45.20
2022-08-26T18:58:16.638Z,45.80
2022-08-26T19:01:27.134Z,45.28
2022-08-26T19:04:34.565Z,45.40
2022-08-26T19:07:43.703Z,45.81
2022-08-26T19:10:54.678Z,46.08
2022-08-26T19:14:00.586Z,46.22
2022-08-26T19:17:09.092Z,46.60
2022-08-26T19:20:15.416Z,46.59
2022-08-26T19:23:32.775Z,46.45
2022-08-26T19:26:39.288Z,46.53
2022-08-26T19:29:46.852Z,46.39
2022-08-26T19:32:53.221Z,46.77
2022-08-26T19:36:00.758Z,46.95
2022-08-26T19:39:11.885Z,47.09
2022-08-26T19:42:19.671Z,47.32
2022-08-26T19:45:25.969Z,47.11
2022-08-26T19:48:32.655Z,47.12
2022-08-26T19:51:39.444Z,47.32
2022-08-26T19:54:49.132Z,47.34
2022-08-26T19:57:55.957Z,47.63
2022-08-26T20:01:03.208Z,47.63
2022-08-26T20:04:09.578Z,47.80
2022-08-26T20:07:18.932Z,48.00
2022-08-26T20:10:28.079Z,48.10
2022-08-26T20:13:36.844Z,47.83
2022-08-26T20:16:42.940Z,48.12
2022-08-26T20:20:07.892Z,47.94
2022-08-26T20:23:36.682Z,47.94
2022-08-26T20:26:47.536Z,48.34
2022-08-26T20:29:53.450Z,48.45
2022-08-26T20:33:00.362Z,48.44
2022-08-26T20:36:07.938Z,48.62
2022-08-26T20:39:15.026Z,48.26
2022-08-26T20:42:23.724Z,48.26
2022-08-26T20:45:31.055Z,48.63
2022-08-26T20:48:36.971Z,48.70
2022-08-26T20:51:45.985Z,49.05
2022-08-26T20:54:51.882Z,48.93
2022-08-26T20:58:03.107Z,49.27
2022-08-26T21:01:09.684Z,49.44
2022-08-26T21:04:21.085Z,49.23
2022-08-26T21:07:26.903Z,49.20
2022-08-26T21:10:34.585Z,49.30
2022-08-26T21:14:04.016Z,49.35
2022-08-26T21:17:11.912Z,49.44
2022-08-26T21:20:17.864Z,49.34
2022-08-26T21:23:29.090Z,49.28
2022-08-26T21:26:35.432Z,49.40
2022-08-26T21:29:45.100Z,49.60
2022-08-26T21:32:54.894Z,49.63
2022-08-26T21:36:03.222Z,49.68
2022-08-26T21:39:11.753Z,49.67
2022-08-26T21:42:19.006Z,49.62
2022-08-26T21:45:27.991Z,50.14
2022-08-26T21:48:35.367Z,50.34
2022-08-26T21:51:44.003Z,50.74
2022-08-26T21:54:51.315Z,50.66
2022-08-26T21:57:58.431Z,50.88
2022-08-26T22:01:12.267Z,51.22
2022-08-26T22:04:18.947Z,51.06
2022-08-26T22:07:26.071Z,51.13
2022-08-26T22:10:31.922Z,51.15
2022-08-26T22:13:41.182Z,51.23
2022-08-26T22:16:50.542Z,51.65
2022-08-26T22:19:58.288Z,51.62
2022-08-26T22:23:08.034Z,51.85
2022-08-26T22:26:25.205Z,52.00
2022-08-26T22:29:33.418Z,52.19
2022-08-26T22:32:44.169Z,52.51
2022-08-26T22:35:54.431Z,52.37
2022-08-26T22:39:03.129Z,52.58
2022-08-26T22:42:09.515Z,52.42
2022-08-26T22:45:16.365Z,52.42
2022-08-26T22:48:27.035Z,52.33
2022-08-26T22:51:34.820Z,52.65
2022-08-26T22:54:41.461Z,52.71
2022-08-26T22:57:48.456Z,52.71
2022-08-26T23:00:54.417Z,52.85
2022-08-26T23:04:06.482Z,53.31
2022-08-26T23:07:12.517Z,53.20
2022-08-26T23:10:19.514Z,53.48
2022-08-26T23:13:25.465Z,53.60
2022-08-26T23:16:37.936Z,53.87
2022-08-26T23:19:48.635Z,54.20
2022-08-26T23:22:55.810Z,54.31
2022-08-26T23:26:05.942Z,54.44
2022-08-26T23:29:16.110Z,54.75
2022-08-26T23:32:22.118Z,55.22
2022-08-26T23:35:29.154Z,55.30
2022-08-26T23:38:35.034Z,55.56
2022-08-26T23:41:42.371Z,55.76
2022-08-26T23:44:49.117Z,55.84
2022-08-26T23:47:57.390Z,55.99
2022-08-26T23:51:21.914Z,56.35
2022-08-26T23:54:29.013Z,56.41
2022-08-26T23:57:37.043Z,56.65
